Map

Track Data

SID SEASON NUMBER BASIN SUBBASIN NAME ISO_TIME NATURE LAT LON WMO_WIND WMO_PRES WMO_AGENCY TRACK_TYPE DIST2LAND LANDFALL IFLAG USA_AGENCY USA_ATCF_ID USA_LAT USA_LON USA_RECORD USA_STATUS USA_WIND USA_PRES USA_SSHS USA_R34_NE USA_R34_SE USA_R34_SW USA_R34_NW USA_R50_NE USA_R50_SE USA_R50_SW USA_R50_NW USA_R64_NE USA_R64_SE USA_R64_SW USA_R64_NW USA_POCI USA_ROCI USA_RMW USA_EYE TOKYO_LAT TOKYO_LON TOKYO_GRADE TOKYO_WIND TOKYO_PRES TOKYO_R50_DIR TOKYO_R50_LONG TOKYO_R50_SHORT TOKYO_R30_DIR TOKYO_R30_LONG TOKYO_R30_SHORT TOKYO_LAND CMA_LAT CMA_LON CMA_CAT CMA_WIND CMA_PRES HKO_LAT HKO_LON HKO_CAT HKO_WIND HKO_PRES NEWDELHI_LAT NEWDELHI_LON NEWDELHI_GRADE NEWDELHI_WIND NEWDELHI_PRES NEWDELHI_CI NEWDELHI_DP NEWDELHI_POCI REUNION_LAT REUNION_LON REUNION_TYPE REUNION_WIND REUNION_PRES REUNION_TNUM REUNION_CI REUNION_RMW REUNION_R34_NE REUNION_R34_SE REUNION_R34_SW REUNION_R34_NW REUNION_R50_NE REUNION_R50_SE REUNION_R50_SW REUNION_R50_NW REUNION_R64_NE REUNION_R64_SE REUNION_R64_SW REUNION_R64_NW BOM_LAT BOM_LON BOM_TYPE BOM_WIND BOM_PRES BOM_TNUM BOM_CI BOM_RMW BOM_R34_NE BOM_R34_SE BOM_R34_SW BOM_R34_NW BOM_R50_NE BOM_R50_SE BOM_R50_SW BOM_R50_NW BOM_R64_NE BOM_R64_SE BOM_R64_SW BOM_R64_NW BOM_ROCI BOM_POCI BOM_EYE BOM_POS_METHOD BOM_PRES_METHOD NADI_LAT NADI_LON NADI_CAT NADI_WIND NADI_PRES WELLINGTON_LAT WELLINGTON_LON WELLINGTON_WIND WELLINGTON_PRES DS824_LAT DS824_LON DS824_STAGE DS824_WIND DS824_PRES TD9636_LAT TD9636_LON TD9636_STAGE TD9636_WIND TD9636_PRES TD9635_LAT TD9635_LON TD9635_WIND TD9635_PRES TD9635_ROCI NEUMANN_LAT NEUMANN_LON NEUMANN_CLASS NEUMANN_WIND NEUMANN_PRES MLC_LAT MLC_LON MLC_CLASS MLC_WIND MLC_PRES USA_GUST BOM_GUST BOM_GUST_PER REUNION_GUST REUNION_GUST_PER USA_SEAHGT USA_SEARAD_NE USA_SEARAD_SE USA_SEARAD_SW USA_SEARAD_NW STORM_SPEED STORM_DIR
1919181N11142 1919 13 WP MM NOT_NAMED 1919-06-29 22:00:00 NR 10.6000 141.500 main 1415 1396 __________O___ -1 10.6000 141.500 2 15 267
1919181N11142 1919 13 WP MM NOT_NAMED 1919-06-30 00:00:00 NR 10.5748 141.004 main 1396 1356 __________P___ -1 10.5748 141.004 2 15 267
1919181N11142 1919 13 WP MM NOT_NAMED 1919-06-30 03:00:00 NR 10.5457 140.253 main 1356 1327 __________P___ -1 10.5457 140.253 2 15 269
1919181N11142 1919 13 WP MM NOT_NAMED 1919-06-30 06:00:00 NR 10.5411 139.482 main 1327 1311 __________P___ -1 10.5411 139.482 2 16 271
1919181N11142 1919 13 WP MM NOT_NAMED 1919-06-30 09:00:00 NR 10.5766 138.678 main 1311 1303 __________P___ -1 10.5766 138.678 2 16 273
1919181N11142 1919 13 WP MM NOT_NAMED 1919-06-30 10:00:00 NR 10.6000 138.400 main 1303 1275 __________O___ -1 10.6000 138.400 2 17 276
1919181N11142 1919 13 WP MM NOT_NAMED 1919-06-30 12:00:00 NR 10.6663 137.830 main 1275 1193 __________P___ -1 10.6663 137.830 2 17 278
1919181N11142 1919 13 WP MM NOT_NAMED 1919-06-30 15:00:00 NR 10.8098 136.955 main 1193 1102 __________P___ -1 10.8098 136.955 2 17 281
1919181N11142 1919 13 WP MM NOT_NAMED 1919-06-30 18:00:00 NR 10.9974 136.087 main 1102 1021 __________P___ -1 10.9974 136.087 2 17 284
1919181N11142 1919 13 WP MM NOT_NAMED 1919-06-30 21:00:00 NR 11.2197 135.260 main 1021 991 __________P___ -1 11.2197 135.260 2 17 286
1919181N11142 1919 13 WP MM NOT_NAMED 1919-06-30 22:00:00 NR 11.3000 135.000 main 991 944 __________O___ -1 11.3000 135.000 2 15 288
1919181N11142 1919 13 WP MM NOT_NAMED 1919-07-01 00:00:00 NR 11.4519 134.516 main 944 876 __________P___ -1 11.4519 134.516 2 15 290
1919181N11142 1919 13 WP MM NOT_NAMED 1919-07-01 03:00:00 NR 11.7053 133.839 main 876 814 __________P___ -1 11.7053 133.839 2 14 293
1919181N11142 1919 13 WP MM NOT_NAMED 1919-07-01 06:00:00 NR 11.9868 133.207 main 814 755 __________P___ -1 11.9868 133.207 2 14 296
1919181N11142 1919 13 WP MM NOT_NAMED 1919-07-01 09:00:00 NR 12.2930 132.600 main 755 736 __________P___ -1 12.2930 132.600 2 13 298
1919181N11142 1919 13 WP MM NOT_NAMED 1919-07-01 10:00:00 NR 12.4000 132.400 main 736 698 __________O___ -1 12.4000 132.400 2 13 297
1919181N11142 1919 13 WP MM NOT_NAMED 1919-07-01 12:00:00 NR 12.5947 131.993 main 698 645 __________P___ -1 12.5947 131.993 2 13 297
1919181N11142 1919 13 WP MM NOT_NAMED 1919-07-01 15:00:00 NR 12.9056 131.396 main 645 586 __________P___ -1 12.9056 131.396 2 13 300
1919181N11142 1919 13 WP MM NOT_NAMED 1919-07-01 18:00:00 NR 13.2530 130.803 main 588 533 __________P___ -1 13.2530 130.803 2 14 303
1919181N11142 1919 13 WP MM NOT_NAMED 1919-07-01 21:00:00 NR 13.6525 130.204 main 536 519 __________P___ -1 13.6525 130.204 2 14 305
1919181N11142 1919 13 WP MM NOT_NAMED 1919-07-01 22:00:00 NR 13.8000 130.000 main 519 492 __________O___ -1 13.8000 130.000 2 15 307
1919181N11142 1919 13 WP MM NOT_NAMED 1919-07-02 00:00:00 NR 14.1078 129.573 main 492 455 __________P___ -1 14.1078 129.573 2 16 308
1919181N11142 1919 13 WP MM NOT_NAMED 1919-07-02 03:00:00 NR 14.6198 128.919 main 455 440 __________P___ -1 14.6198 128.919 2 17 310
1919181N11142 1919 13 WP MM NOT_NAMED 1919-07-02 06:00:00 NR 15.1836 128.261 main 444 404 __________P___ -1 15.1836 128.261 2 17 313
1919181N11142 1919 13 WP MM NOT_NAMED 1919-07-02 09:00:00 NR 15.7900 127.612 main 404 399 __________P___ -1 15.7900 127.612 2 18 315
1919181N11142 1919 13 WP MM NOT_NAMED 1919-07-02 10:00:00 NR 16.0000 127.400 main 399 395 __________O___ -1 16.0000 127.400 2 18 316
1919181N11142 1919 13 WP MM NOT_NAMED 1919-07-02 12:00:00 NR 16.4476 126.963 main 395 395 __________P___ -1 16.4476 126.963 2 19 318
1919181N11142 1919 13 WP MM NOT_NAMED 1919-07-02 15:00:00 NR 17.1513 126.320 main 404 351 __________P___ -1 17.1513 126.320 2 19 320
1919181N11142 1919 13 WP MM NOT_NAMED 1919-07-02 18:00:00 NR 17.8520 125.712 main 354 306 __________P___ -1 17.8520 125.712 2 17 321
1919181N11142 1919 13 WP MM NOT_NAMED 1919-07-02 21:00:00 NR 18.5025 125.164 main 306 286 __________P___ -1 18.5025 125.164 2 16 322
1919181N11142 1919 13 WP MM NOT_NAMED 1919-07-02 22:00:00 NR 18.7000 125.000 main 286 261 __________O___ -1 18.7000 125.000 4 14 322
1919181N11142 1919 13 WP MM NOT_NAMED 1919-07-03 00:00:00 NR 19.0499 124.716 main 261 247 __________P___ -1 19.0499 124.716 4 12 323
1919181N11142 1919 13 WP MM NOT_NAMED 1919-07-03 03:00:00 NR 19.5127 124.354 main 252 243 __________P___ -1 19.5127 124.354 4 11 323
1919181N11142 1919 13 WP MM NOT_NAMED 1919-07-03 06:00:00 NR 19.9177 124.034 main 245 245 __________P___ -1 19.9177 124.034 4 10 322
1919181N11142 1919 13 WP MM NOT_NAMED 1919-07-03 09:00:00 NR 20.2836 123.714 main 258 258 __________P___ -1 20.2836 123.714 4 10 320
1919181N11142 1919 13 WP MM NOT_NAMED 1919-07-03 10:00:00 NR 20.4000 123.600 main 261 261 __________O___ -1 20.4000 123.600 4 10 319
1919181N11142 1919 13 WP MM NOT_NAMED 1919-07-03 12:00:00 NR 20.6436 123.380 main 271 239 __________P___ -1 20.6436 123.380 4 10 318
1919181N11142 1919 13 WP MM NOT_NAMED 1919-07-03 15:00:00 NR 20.9841 123.032 main 239 188 __________P___ -1 20.9841 123.032 4 10 313
1919181N11142 1919 13 WP MM NOT_NAMED 1919-07-03 18:00:00 NR 21.3013 122.623 main 188 128 __________P___ -1 21.3013 122.623 4 11 306
1919181N11142 1919 13 WP MM NOT_NAMED 1919-07-03 21:00:00 NR 21.6022 122.105 main 128 105 __________P___ -1 21.6022 122.105 4 12 301
1919181N11142 1919 13 WP MM NOT_NAMED 1919-07-03 22:00:00 NR 21.7000 121.900 main 105 51 __________O___ -1 21.7000 121.900 4 14 291
1919181N11142 1919 13 WP MM NOT_NAMED 1919-07-04 00:00:00 NR 21.8517 121.402 main 51 0 __________P___ -1 21.8517 121.402 4 16 286
1919181N11142 1919 13 WP MM NOT_NAMED 1919-07-04 03:00:00 NR 22.0649 120.541 main 20 20 __________P___ -1 22.0649 120.541 4 17 286
1919181N11142 1919 13 WP MM NOT_NAMED 1919-07-04 06:00:00 NR 22.3126 119.613 main 75 75 __________P___ -1 22.3126 119.613 4 18 289
1919181N11142 1919 13 WP MM NOT_NAMED 1919-07-04 09:00:00 NR 22.6545 118.692 main 150 129 __________P___ -1 22.6545 118.692 4 18 294
1919181N11142 1919 13 WP MM NOT_NAMED 1919-07-04 10:00:00 NR 22.8000 118.400 main 129 70 __________O___ -1 22.8000 118.400 4 18 302
1919181N11142 1919 13 WP MM NOT_NAMED 1919-07-04 12:00:00 NR 23.1469 117.849 main 70 0 __________P___ -1 23.1469 117.849 4 19 309
1919181N11142 1919 13 WP MM NOT_NAMED 1919-07-04 15:00:00 NR 23.7861 117.092 main 0 0 __________P___ -1 23.7861 117.092 4 19 316
1919181N11142 1919 13 WP MM NOT_NAMED 1919-07-04 18:00:00 NR 24.5283 116.393 main 0 0 __________P___ -1 24.5283 116.393 4 20 321
1919181N11142 1919 13 WP MM NOT_NAMED 1919-07-04 21:00:00 NR 25.3284 115.722 main 0 0 __________P___ -1 25.3284 115.722 4 20 323
1919181N11142 1919 13 WP MM NOT_NAMED 1919-07-04 22:00:00 NR 25.6000 115.500 main 0 __________O___ -1 25.6000 115.500 4 20 323

Digital Typhoon Data and Search

About IBTrACS Database

This database is a web-friendly format of International Best Track Archive for Climate Stewardship (IBTrACS), a global best track data archive curated by NOAA dating back to 1842.

Updated: 2021-12-03